createdAt,value
2018-08-18T00:00:20.161Z,99.90
2018-08-18T00:02:48.728Z,99.90
2018-08-18T00:05:18.047Z,99.90
2018-08-18T00:07:47.029Z,99.90
2018-08-18T00:10:17.592Z,99.90
2018-08-18T00:12:47.292Z,99.90
2018-08-18T00:15:15.784Z,99.90
2018-08-18T00:17:44.604Z,99.90
2018-08-18T00:20:18.473Z,99.90
2018-08-18T00:22:47.265Z,99.90
2018-08-18T00:25:16.161Z,99.90
2018-08-18T00:27:45.203Z,99.90
2018-08-18T00:30:19.334Z,99.90
2018-08-18T00:32:48.306Z,99.90
2018-08-18T00:35:17.501Z,99.90
2018-08-18T00:37:46.283Z,99.90
2018-08-18T00:40:15.363Z,99.90
2018-08-18T00:42:44.166Z,99.90
2018-08-18T00:45:15.365Z,99.90
2018-08-18T00:47:44.713Z,99.90
2018-08-18T00:50:22.052Z,99.90
2018-08-18T00:52:50.694Z,99.90
2018-08-18T00:55:19.525Z,99.90
2018-08-18T00:57:48.046Z,99.90
2018-08-18T01:00:16.660Z,99.90
2018-08-18T01:02:46.018Z,99.90
2018-08-18T01:05:14.896Z,99.90
2018-08-18T01:07:44.886Z,99.90
2018-08-18T01:10:13.837Z,99.90
2018-08-18T01:12:42.713Z,99.90
2018-08-18T01:15:16.499Z,99.90
2018-08-18T01:17:45.475Z,99.90
2018-08-18T01:20:15.369Z,99.90
2018-08-18T01:22:48.049Z,99.90
2018-08-18T01:25:16.608Z,99.90
2018-08-18T01:27:51.158Z,99.90
2018-08-18T01:30:20.000Z,99.90
2018-08-18T01:32:48.605Z,99.90
2018-08-18T01:35:17.565Z,99.90
2018-08-18T01:37:46.309Z,99.90
2018-08-18T01:40:15.272Z,99.90
2018-08-18T01:42:43.816Z,99.90
2018-08-18T01:45:12.864Z,99.90
2018-08-18T01:47:41.396Z,99.90
2018-08-18T01:50:15.273Z,99.90
2018-08-18T01:52:43.876Z,99.90
2018-08-18T01:55:14.350Z,99.90
2018-08-18T01:57:43.061Z,99.90
2018-08-18T02:00:28.359Z,99.90
2018-08-18T02:02:57.460Z,99.90
2018-08-18T02:05:26.709Z,99.90
2018-08-18T02:07:55.493Z,99.90
2018-08-18T02:10:23.969Z,99.90
2018-08-18T02:13:00.673Z,99.90
2018-08-18T02:15:29.782Z,99.90
2018-08-18T02:17:58.750Z,99.90
2018-08-18T02:20:27.438Z,99.90
2018-08-18T02:22:56.449Z,99.90
2018-08-18T02:25:24.944Z,99.90
2018-08-18T02:27:53.676Z,99.90
2018-08-18T02:30:23.116Z,99.90
2018-08-18T02:32:51.627Z,99.90
2018-08-18T02:35:22.661Z,99.90
2018-08-18T02:37:51.240Z,99.90
2018-08-18T02:40:20.319Z,99.90
2018-08-18T02:42:49.287Z,99.90
2018-08-18T02:45:18.585Z,99.90
2018-08-18T02:47:47.711Z,99.90
2018-08-18T02:50:16.722Z,99.90
2018-08-18T02:52:45.389Z,99.90
2018-08-18T02:55:14.084Z,99.90
2018-08-18T02:57:43.909Z,99.90
2018-08-18T03:00:27.020Z,99.90
2018-08-18T03:02:55.951Z,99.90
2018-08-18T03:05:24.427Z,99.90
2018-08-18T03:07:53.315Z,99.90
2018-08-18T03:10:24.431Z,99.90
2018-08-18T03:12:56.883Z,99.90
2018-08-18T03:15:52.649Z,99.90
2018-08-18T03:18:32.529Z,99.90
2018-08-18T03:21:02.479Z,99.90
2018-08-18T03:23:31.891Z,99.90
2018-08-18T03:26:00.341Z,99.90
2018-08-18T03:28:30.341Z,99.90
2018-08-18T03:30:59.388Z,99.90
2018-08-18T03:33:28.323Z,99.90
2018-08-18T03:35:57.090Z,99.90
2018-08-18T03:38:25.814Z,99.90
2018-08-18T03:40:54.782Z,99.90
2018-08-18T03:43:23.477Z,99.90
2018-08-18T03:45:52.133Z,99.90
2018-08-18T03:48:20.800Z,99.90
2018-08-18T03:50:49.749Z,99.90
2018-08-18T03:53:19.461Z,99.90
2018-08-18T03:55:48.251Z,99.90
2018-08-18T03:58:17.043Z,99.90
2018-08-18T04:00:46.088Z,99.90
2018-08-18T04:03:15.117Z,99.90
2018-08-18T04:05:43.993Z,99.90
2018-08-18T04:08:12.570Z,99.90
2018-08-18T04:10:41.787Z,99.90
2018-08-18T04:13:10.677Z,99.90
2018-08-18T04:15:39.419Z,99.90
2018-08-18T04:18:14.265Z,99.90
2018-08-18T04:20:42.847Z,99.90
2018-08-18T04:23:11.618Z,99.90
2018-08-18T04:25:40.701Z,99.90
2018-08-18T04:28:09.442Z,99.90
2018-08-18T04:30:38.230Z,99.90
2018-08-18T04:33:07.012Z,99.90
2018-08-18T04:35:35.781Z,99.90
2018-08-18T04:38:05.304Z,99.90
2018-08-18T04:40:35.866Z,99.90
2018-08-18T04:43:04.429Z,99.90
2018-08-18T04:45:32.950Z,99.90
2018-08-18T04:48:01.869Z,99.90
2018-08-18T04:50:30.657Z,99.90
2018-08-18T04:52:59.381Z,99.90
2018-08-18T04:55:28.191Z,99.90
2018-08-18T04:57:57.123Z,99.90
2018-08-18T05:00:27.749Z,99.90
2018-08-18T05:02:58.473Z,99.90
2018-08-18T05:05:28.158Z,99.90
2018-08-18T05:07:58.609Z,99.90
2018-08-18T05:10:27.799Z,99.90
2018-08-18T05:12:56.617Z,99.90
2018-08-18T05:15:25.191Z,99.90
2018-08-18T05:17:53.781Z,99.90
2018-08-18T05:20:25.058Z,99.90
2018-08-18T05:22:53.780Z,99.90
2018-08-18T05:25:28.522Z,99.90
2018-08-18T05:27:57.261Z,99.90
2018-08-18T05:30:25.961Z,99.90
2018-08-18T05:32:54.682Z,99.90
2018-08-18T05:35:23.420Z,99.90
2018-08-18T05:37:52.512Z,99.90
2018-08-18T05:40:21.520Z,99.90
2018-08-18T05:42:50.770Z,99.90
2018-08-18T05:45:25.105Z,99.90
2018-08-18T05:47:54.504Z,99.90
2018-08-18T05:50:29.057Z,99.90
2018-08-18T05:53:12.760Z,99.90
2018-08-18T05:55:41.586Z,99.90
2018-08-18T05:58:10.422Z,99.90
2018-08-18T06:00:39.305Z,99.90
2018-08-18T06:03:07.925Z,99.90
2018-08-18T06:05:36.753Z,99.90
2018-08-18T06:08:06.074Z,99.90
2018-08-18T06:10:38.466Z,99.90
2018-08-18T06:13:12.301Z,99.90
2018-08-18T06:15:42.589Z,99.90
2018-08-18T06:18:11.469Z,99.90
2018-08-18T06:20:40.305Z,99.90
2018-08-18T06:23:09.029Z,99.90
2018-08-18T06:25:37.636Z,99.90
2018-08-18T06:28:06.683Z,99.90
2018-08-18T06:30:35.410Z,99.90
2018-08-18T06:33:04.337Z,99.90
2018-08-18T06:35:33.093Z,99.90
2018-08-18T06:38:01.936Z,99.90
2018-08-18T06:40:31.105Z,99.90
2018-08-18T06:43:00.255Z,99.90
2018-08-18T06:45:29.299Z,99.90
2018-08-18T06:48:31.070Z,99.90
2018-08-18T06:51:00.564Z,99.90
2018-08-18T06:53:30.347Z,99.90
2018-08-18T06:56:00.711Z,99.90
2018-08-18T06:58:29.191Z,99.90
2018-08-18T07:00:58.096Z,99.90
2018-08-18T07:03:34.209Z,99.90
2018-08-18T07:06:07.122Z,99.90
2018-08-18T07:08:41.692Z,99.90
2018-08-18T07:11:10.985Z,99.90
2018-08-18T07:13:39.782Z,99.90
2018-08-18T07:16:08.638Z,99.90
2018-08-18T07:18:37.731Z,99.90
2018-08-18T07:21:06.397Z,99.90
2018-08-18T07:23:35.273Z,99.90
2018-08-18T07:26:04.051Z,99.90
2018-08-18T07:28:33.006Z,99.90
2018-08-18T07:31:01.947Z,99.90
2018-08-18T07:33:30.665Z,99.90
2018-08-18T07:35:59.436Z,99.90
2018-08-18T07:38:28.112Z,99.90
2018-08-18T07:40:56.709Z,99.90
2018-08-18T07:43:27.852Z,99.90
2018-08-18T07:45:57.969Z,99.90
2018-08-18T07:48:26.737Z,99.90
2018-08-18T07:50:55.559Z,99.90
2018-08-18T07:53:28.758Z,99.90
2018-08-18T07:55:57.728Z,99.90
2018-08-18T07:58:26.954Z,99.90
2018-08-18T08:00:57.838Z,99.90
2018-08-18T08:03:26.845Z,99.90
2018-08-18T08:05:55.647Z,99.90
2018-08-18T08:11:16.111Z,99.90
2018-08-18T08:13:44.976Z,99.90
2018-08-18T08:16:16.772Z,99.90
2018-08-18T08:18:47.153Z,99.90
2018-08-18T08:21:15.887Z,99.90
2018-08-18T08:23:44.924Z,99.90
2018-08-18T08:26:14.436Z,99.90
2018-08-18T08:28:43.658Z,99.90
2018-08-18T08:31:12.268Z,99.90
2018-08-18T08:33:40.882Z,99.90
2018-08-18T08:36:13.865Z,99.90
2018-08-18T08:38:54.842Z,99.90
2018-08-18T08:41:25.101Z,99.90
2018-08-18T08:43:53.954Z,99.90
2018-08-18T08:46:23.966Z,99.90
2018-08-18T08:48:54.344Z,99.90
2018-08-18T08:51:23.575Z,99.90
2018-08-18T08:53:53.886Z,99.90
2018-08-18T08:56:29.728Z,99.90
2018-08-18T08:58:58.442Z,99.90
2018-08-18T09:01:27.476Z,99.90
2018-08-18T09:03:56.517Z,99.90
2018-08-18T09:06:25.105Z,99.90
2018-08-18T09:08:58.569Z,99.90
2018-08-18T09:11:28.741Z,99.90
2018-08-18T09:14:01.556Z,99.90
2018-08-18T09:16:31.682Z,99.90
2018-08-18T09:19:00.833Z,99.90
2018-08-18T09:21:38.230Z,99.90
2018-08-18T09:24:07.367Z,99.90
2018-08-18T09:26:41.739Z,99.90
2018-08-18T09:29:11.520Z,99.90
2018-08-18T09:31:41.023Z,99.90
2018-08-18T09:34:09.964Z,99.90
2018-08-18T09:36:39.533Z,99.90
2018-08-18T09:39:13.255Z,99.90
2018-08-18T09:41:42.080Z,99.90
2018-08-18T09:44:15.197Z,99.90
2018-08-18T09:46:44.547Z,99.90
2018-08-18T09:49:13.588Z,99.90
2018-08-18T09:51:42.219Z,99.90
2018-08-18T09:54:11.752Z,99.90
2018-08-18T09:56:40.305Z,99.90
2018-08-18T09:59:09.031Z,99.90
2018-08-18T10:01:37.814Z,99.90
2018-08-18T10:04:07.217Z,99.90
2018-08-18T10:06:35.972Z,99.90
2018-08-18T10:09:10.995Z,99.90
2018-08-18T10:11:41.732Z,99.90
2018-08-18T10:14:10.635Z,99.90
2018-08-18T10:16:39.296Z,99.90
2018-08-18T10:19:07.953Z,99.90
2018-08-18T10:21:37.573Z,99.90
2018-08-18T10:24:06.551Z,99.90
2018-08-18T10:26:35.397Z,99.90
2018-08-18T10:29:17.940Z,99.90
2018-08-18T10:31:49.420Z,99.90
2018-08-18T10:34:20.002Z,99.90
2018-08-18T10:37:23.225Z,99.90
2018-08-18T10:39:56.126Z,99.90
2018-08-18T10:42:25.537Z,99.90
2018-08-18T10:45:00.657Z,99.90
2018-08-18T10:47:29.572Z,99.90
2018-08-18T10:50:09.414Z,99.90
2018-08-18T10:52:49.245Z,99.60
2018-08-18T10:55:19.272Z,99.30
2018-08-18T10:58:01.127Z,99.40
2018-08-18T11:00:32.731Z,99.90
2018-08-18T11:03:05.901Z,99.90
2018-08-18T11:05:34.764Z,99.90
2018-08-18T11:08:07.002Z,99.90
2018-08-18T11:10:38.168Z,99.70
2018-08-18T11:13:07.226Z,99.90
2018-08-18T11:15:36.596Z,99.90
2018-08-18T11:18:05.627Z,99.90
2018-08-18T11:20:35.416Z,99.90
2018-08-18T11:23:06.954Z,98.20
2018-08-18T11:25:42.840Z,97.50
2018-08-18T11:28:14.890Z,95.30
2018-08-18T11:30:44.364Z,93.50
2018-08-18T11:33:23.334Z,95.20
2018-08-18T11:35:52.021Z,94.10
2018-08-18T11:38:21.038Z,93.30
2018-08-18T11:40:49.766Z,94.30
2018-08-18T11:43:18.613Z,95.30
2018-08-18T11:45:47.480Z,94.00
2018-08-18T11:48:24.037Z,94.00
2018-08-18T11:50:53.822Z,93.40
2018-08-18T11:53:23.155Z,94.10
2018-08-18T11:55:52.026Z,94.30
2018-08-18T11:58:23.492Z,94.30
2018-08-18T12:00:57.185Z,92.90
2018-08-18T12:03:28.427Z,93.20
2018-08-18T12:05:58.112Z,92.20
2018-08-18T12:08:34.464Z,92.30
2018-08-18T12:11:05.009Z,92.00
2018-08-18T12:13:40.160Z,92.90
2018-08-18T12:16:12.739Z,92.60
2018-08-18T12:18:42.720Z,91.70
2018-08-18T12:21:12.100Z,91.20
2018-08-18T12:23:42.693Z,92.20
2018-08-18T12:26:15.374Z,93.00
2018-08-18T12:28:54.371Z,95.10
2018-08-18T12:31:25.462Z,91.90
2018-08-18T12:33:54.269Z,92.70
2018-08-18T12:36:23.261Z,90.80
2018-08-18T12:38:55.699Z,91.60
2018-08-18T12:41:24.359Z,92.60
2018-08-18T12:43:56.541Z,94.10
2018-08-18T12:46:30.542Z,95.50
2018-08-18T12:48:59.244Z,93.50
2018-08-18T12:51:32.780Z,92.10
2018-08-18T12:54:04.192Z,91.50
2018-08-18T12:56:33.078Z,93.40
2018-08-18T12:59:01.945Z,94.30
2018-08-18T13:01:45.763Z,93.40
2018-08-18T13:04:17.288Z,92.40
2018-08-18T13:06:49.439Z,91.70
2018-08-18T13:09:19.569Z,93.40
2018-08-18T13:11:52.462Z,94.40
2018-08-18T13:14:22.945Z,94.00
2018-08-18T13:16:52.114Z,92.70
2018-08-18T13:19:23.186Z,91.70
2018-08-18T13:21:52.576Z,92.90
2018-08-18T13:24:23.609Z,92.70
2018-08-18T13:26:52.369Z,91.60
2018-08-18T13:29:31.034Z,91.30
2018-08-18T13:32:00.693Z,91.00
2018-08-18T13:34:29.789Z,91.50
2018-08-18T13:36:58.628Z,92.20
2018-08-18T13:39:28.854Z,92.00
2018-08-18T13:41:57.752Z,92.90
2018-08-18T13:44:31.594Z,93.60
2018-08-18T13:47:00.464Z,93.30
2018-08-18T13:49:30.464Z,91.90
2018-08-18T13:52:04.370Z,91.40
2018-08-18T13:54:34.754Z,91.00
2018-08-18T13:57:07.797Z,91.80
2018-08-18T13:59:43.470Z,93.00
2018-08-18T14:02:15.143Z,94.40
2018-08-18T14:04:45.419Z,93.20
2018-08-18T14:07:14.823Z,91.50
2018-08-18T14:09:48.639Z,93.50
2018-08-18T14:12:19.074Z,93.00
2018-08-18T14:14:48.457Z,94.30
2018-08-18T14:17:20.155Z,93.60
2018-08-18T14:19:50.236Z,92.60
2018-08-18T14:22:19.976Z,92.20
2018-08-18T14:24:48.656Z,93.90
2018-08-18T14:27:19.858Z,93.30
2018-08-18T14:29:48.625Z,92.70
2018-08-18T14:32:25.272Z,93.50
2018-08-18T14:35:13.034Z,92.20
2018-08-18T14:37:43.324Z,91.50
2018-08-18T14:40:16.174Z,92.60
2018-08-18T14:42:47.008Z,92.80
2018-08-18T14:45:16.878Z,92.40
2018-08-18T14:47:47.426Z,92.00
2018-08-18T14:50:28.073Z,93.30
2018-08-18T14:52:57.528Z,92.40
2018-08-18T14:55:28.090Z,93.20
2018-08-18T14:58:01.825Z,91.00
2018-08-18T15:00:30.939Z,91.30
2018-08-18T15:03:01.781Z,90.20
2018-08-18T15:05:31.086Z,90.60
2018-08-18T15:08:00.485Z,91.00
2018-08-18T15:10:40.235Z,91.60
2018-08-18T15:13:09.853Z,91.70
2018-08-18T15:15:39.677Z,91.10
2018-08-18T15:18:10.378Z,92.60
2018-08-18T15:20:39.766Z,93.00
2018-08-18T15:23:09.395Z,93.50
2018-08-18T15:25:39.483Z,94.40
2018-08-18T15:28:10.190Z,93.00
2018-08-18T15:30:40.515Z,94.30
2018-08-18T15:33:11.353Z,93.80
2018-08-18T15:35:40.978Z,93.50
2018-08-18T15:38:10.253Z,93.60
2018-08-18T15:40:38.953Z,93.80
2018-08-18T15:43:12.081Z,93.90
2018-08-18T15:45:57.870Z,92.60
2018-08-18T15:48:31.088Z,93.60
2018-08-18T15:50:59.719Z,94.20
2018-08-18T15:53:53.857Z,94.70
2018-08-18T15:56:23.232Z,95.30
2018-08-18T15:58:53.251Z,94.40
2018-08-18T16:01:23.194Z,95.30
2018-08-18T16:03:54.145Z,95.60
2018-08-18T16:06:23.795Z,95.50
2018-08-18T16:08:53.203Z,95.30
2018-08-18T16:11:22.180Z,95.60
2018-08-18T16:13:51.303Z,95.40
2018-08-18T16:16:21.277Z,95.70
2018-08-18T16:18:55.073Z,96.10
2018-08-18T16:21:25.924Z,95.60
2018-08-18T16:23:54.832Z,96.00
2018-08-18T16:26:25.251Z,95.80
2018-08-18T16:28:53.969Z,95.90
2018-08-18T16:34:09.823Z,95.80
2018-08-18T16:36:45.047Z,96.20
2018-08-18T16:39:13.947Z,96.10
2018-08-18T16:41:43.480Z,96.20
2018-08-18T16:44:13.711Z,96.70
2018-08-18T16:46:42.685Z,96.20
2018-08-18T16:49:11.502Z,96.80
2018-08-18T16:51:40.323Z,96.80
2018-08-18T16:54:21.249Z,96.80
2018-08-18T16:56:49.995Z,97.20
2018-08-18T16:59:20.240Z,97.10
2018-08-18T17:01:48.985Z,97.60
2018-08-18T17:04:22.997Z,98.00
2018-08-18T17:06:51.773Z,98.30
2018-08-18T17:09:31.500Z,98.00
2018-08-18T17:12:12.388Z,98.10
2018-08-18T17:14:43.385Z,98.60
2018-08-18T17:17:12.591Z,99.00
2018-08-18T17:19:46.238Z,99.00
2018-08-18T17:22:16.301Z,99.10
2018-08-18T17:24:44.901Z,99.70
2018-08-18T17:27:13.619Z,99.50
2018-08-18T17:29:45.265Z,99.50
2018-08-18T17:32:13.981Z,99.90
2018-08-18T17:34:42.838Z,99.60
2018-08-18T17:37:11.633Z,99.70
2018-08-18T17:39:41.120Z,99.90
2018-08-18T17:42:09.849Z,99.90
2018-08-18T17:44:38.508Z,99.90
2018-08-18T17:47:09.509Z,99.90
2018-08-18T17:49:45.117Z,99.90
2018-08-18T17:52:13.926Z,99.90
2018-08-18T17:54:43.538Z,99.90
2018-08-18T17:57:12.460Z,99.90
2018-08-18T17:59:42.055Z,99.90
2018-08-18T18:02:18.765Z,99.90
2018-08-18T18:04:55.133Z,99.90
2018-08-18T18:07:24.209Z,99.90
2018-08-18T18:09:52.913Z,99.90
2018-08-18T18:12:24.049Z,99.90
2018-08-18T18:14:53.520Z,99.90
2018-08-18T18:17:23.932Z,99.90
2018-08-18T18:19:54.546Z,99.90
2018-08-18T18:22:23.218Z,99.90
2018-08-18T18:24:51.937Z,99.90
2018-08-18T18:27:20.811Z,99.90
2018-08-18T18:29:49.659Z,99.90
2018-08-18T18:32:18.680Z,99.90
2018-08-18T18:34:48.268Z,99.90
2018-08-18T18:37:17.668Z,99.90
2018-08-18T18:39:56.637Z,99.90
2018-08-18T18:42:25.825Z,99.90
2018-08-18T18:44:54.730Z,99.90
2018-08-18T18:47:23.440Z,99.90
2018-08-18T18:49:52.462Z,99.90
2018-08-18T18:52:20.997Z,99.90
2018-08-18T18:54:50.044Z,99.90
2018-08-18T18:57:18.867Z,99.90
2018-08-18T18:59:56.203Z,99.90
2018-08-18T19:02:27.016Z,99.90
2018-08-18T19:04:55.909Z,99.90
2018-08-18T19:07:24.909Z,99.90
2018-08-18T19:10:00.896Z,99.90
2018-08-18T19:12:29.869Z,99.90
2018-08-18T19:15:06.777Z,99.90
2018-08-18T19:17:35.525Z,99.90
2018-08-18T19:20:16.218Z,99.90
2018-08-18T19:22:47.509Z,99.90
2018-08-18T19:25:16.125Z,99.90
2018-08-18T19:27:44.701Z,99.90
2018-08-18T19:30:13.519Z,99.90
2018-08-18T19:32:42.324Z,99.90
2018-08-18T19:35:11.089Z,99.90
2018-08-18T19:37:45.004Z,99.90
2018-08-18T19:40:13.548Z,99.90
2018-08-18T19:42:42.270Z,99.90
2018-08-18T19:45:10.984Z,99.90
2018-08-18T19:47:40.524Z,99.90
2018-08-18T19:50:10.336Z,99.90
2018-08-18T19:52:39.094Z,99.90
2018-08-18T19:55:10.223Z,99.90
2018-08-18T19:57:39.521Z,99.90
2018-08-18T20:00:20.664Z,99.90
2018-08-18T20:03:08.967Z,99.90
2018-08-18T20:05:38.454Z,99.90
2018-08-18T20:08:07.701Z,99.90
2018-08-18T20:10:45.555Z,99.90
2018-08-18T20:13:15.152Z,99.90
2018-08-18T20:15:50.725Z,99.90
2018-08-18T20:18:20.844Z,99.90
2018-08-18T20:20:49.681Z,99.90
2018-08-18T20:23:19.294Z,99.90
2018-08-18T20:25:48.755Z,99.90
2018-08-18T20:28:17.527Z,99.90
2018-08-18T20:33:24.257Z,99.90
2018-08-18T20:35:53.655Z,99.90
2018-08-18T20:38:25.465Z,99.90
2018-08-18T20:40:57.486Z,99.90
2018-08-18T20:43:28.394Z,99.90
2018-08-18T20:45:57.400Z,99.90
2018-08-18T20:48:26.503Z,99.90
2018-08-18T20:50:55.629Z,99.90
2018-08-18T20:53:24.345Z,99.90
2018-08-18T20:55:57.320Z,99.90
2018-08-18T20:58:27.446Z,99.90
2018-08-18T21:00:56.650Z,99.90
2018-08-18T21:03:45.382Z,99.90
2018-08-18T21:06:14.809Z,99.90
2018-08-18T21:08:43.799Z,99.90
2018-08-18T21:11:12.913Z,99.90
2018-08-18T21:13:41.674Z,99.90
2018-08-18T21:16:10.640Z,99.90
2018-08-18T21:18:39.473Z,99.90
2018-08-18T21:21:24.371Z,99.90
2018-08-18T21:23:53.535Z,99.90
2018-08-18T21:26:22.420Z,99.90
2018-08-18T21:28:54.174Z,99.90
2018-08-18T21:31:28.742Z,99.90
2018-08-18T21:34:00.358Z,99.90
2018-08-18T21:36:29.832Z,99.90
2018-08-18T21:39:03.714Z,99.90
2018-08-18T21:41:33.012Z,99.90
2018-08-18T21:44:02.941Z,99.90
2018-08-18T21:46:31.934Z,99.90
2018-08-18T21:49:02.604Z,99.90
2018-08-18T21:51:32.811Z,99.90
2018-08-18T21:54:01.854Z,99.90
2018-08-18T21:56:38.535Z,99.90
2018-08-18T21:59:11.932Z,99.90
2018-08-18T22:01:40.549Z,99.90
2018-08-18T22:04:09.890Z,99.90
2018-08-18T22:06:38.665Z,99.90
2018-08-18T22:09:21.824Z,99.90
2018-08-18T22:11:50.927Z,99.90
2018-08-18T22:14:19.922Z,99.90
2018-08-18T22:16:54.171Z,99.90
2018-08-18T22:19:23.315Z,99.90
2018-08-18T22:21:52.106Z,99.90
2018-08-18T22:24:20.929Z,99.90
2018-08-18T22:26:49.921Z,99.90
2018-08-18T22:29:22.493Z,99.90
2018-08-18T22:31:51.843Z,99.90
2018-08-18T22:34:20.847Z,99.90
2018-08-18T22:36:49.866Z,99.90
2018-08-18T22:39:19.006Z,99.90
2018-08-18T22:41:49.052Z,99.90
2018-08-18T22:44:19.038Z,99.90
2018-08-18T22:46:48.015Z,99.90
2018-08-18T22:49:17.345Z,99.90
2018-08-18T22:51:46.161Z,99.90
2018-08-18T22:54:15.252Z,99.90
2018-08-18T22:56:48.048Z,99.90
2018-08-18T22:59:16.909Z,99.90
2018-08-18T23:01:45.587Z,99.90
2018-08-18T23:04:27.718Z,99.90
2018-08-18T23:06:56.957Z,99.90
2018-08-18T23:09:26.287Z,99.90
2018-08-18T23:11:57.650Z,99.90
2018-08-18T23:14:36.678Z,99.90
2018-08-18T23:17:06.297Z,99.90
2018-08-18T23:19:34.989Z,99.90
2018-08-18T23:22:03.869Z,99.90
2018-08-18T23:24:36.351Z,99.90
2018-08-18T23:27:05.481Z,99.90
2018-08-18T23:29:34.397Z,99.90
2018-08-18T23:32:16.083Z,99.90
2018-08-18T23:34:44.709Z,99.90
2018-08-18T23:37:17.597Z,99.90
2018-08-18T23:39:46.361Z,99.90
2018-08-18T23:42:19.243Z,99.90
2018-08-18T23:44:49.246Z,99.90
2018-08-18T23:47:18.686Z,99.90
2018-08-18T23:49:47.701Z,99.90
2018-08-18T23:52:16.663Z,99.90
2018-08-18T23:54:45.907Z,99.90
2018-08-18T23:57:16.733Z,99.90
2018-08-18T23:59:45.906Z,99.90
